createdAt,value
2023-05-25T00:01:01.139Z,8.30
2023-05-25T00:01:50.018Z,7.60
2023-05-25T00:02:49.128Z,8.40
2023-05-25T00:03:49.033Z,8.80
2023-05-25T00:04:48.907Z,8.00
2023-05-25T00:05:48.889Z,8.60
2023-05-25T00:06:48.884Z,8.20
2023-05-25T00:07:48.856Z,8.50
2023-05-25T00:08:48.857Z,8.10
2023-05-25T00:09:48.861Z,8.00
2023-05-25T00:10:48.853Z,7.80
2023-05-25T00:11:48.816Z,7.60
2023-05-25T00:12:48.865Z,8.80
2023-05-25T00:13:48.795Z,8.20
2023-05-25T00:14:48.804Z,8.00
2023-05-25T00:15:48.771Z,8.10
2023-05-25T00:16:48.816Z,8.50
2023-05-25T00:17:48.842Z,8.10
2023-05-25T00:18:48.799Z,8.10
2023-05-25T00:19:48.760Z,8.50
2023-05-25T00:20:48.730Z,7.90
2023-05-25T00:21:48.924Z,8.20
2023-05-25T00:22:48.697Z,8.00
2023-05-25T00:23:48.710Z,7.80
2023-05-25T00:24:48.683Z,8.20
2023-05-25T00:25:48.676Z,8.50
2023-05-25T00:26:48.653Z,8.60
2023-05-25T00:27:48.649Z,8.30
2023-05-25T00:28:48.656Z,8.20
2023-05-25T00:29:48.632Z,8.50
2023-05-25T00:30:48.668Z,9.10
2023-05-25T00:31:48.599Z,8.00
2023-05-25T00:32:48.625Z,8.50
2023-05-25T00:33:48.586Z,8.60
2023-05-25T00:34:48.582Z,8.70
2023-05-25T00:35:48.563Z,10.10
2023-05-25T00:36:48.546Z,9.40
2023-05-25T00:37:48.550Z,9.30
2023-05-25T00:38:48.524Z,9.50
2023-05-25T00:39:48.508Z,9.30
2023-05-25T00:40:48.495Z,8.90
2023-05-25T00:41:48.513Z,9.00
2023-05-25T00:42:48.509Z,8.80
2023-05-25T00:43:48.475Z,9.30
2023-05-25T00:44:48.456Z,10.00
2023-05-25T00:45:48.493Z,10.00
2023-05-25T00:46:48.527Z,9.60
2023-05-25T00:47:48.483Z,10.20
2023-05-25T00:48:48.406Z,10.00
2023-05-25T00:49:48.406Z,9.90
2023-05-25T00:50:48.409Z,10.00
2023-05-25T00:51:48.389Z,9.80
2023-05-25T00:52:48.392Z,10.20
2023-05-25T00:53:48.364Z,9.90
2023-05-25T00:54:48.378Z,9.60
2023-05-25T00:55:48.357Z,10.30
2023-05-25T00:56:48.332Z,9.60
2023-05-25T00:57:48.315Z,9.70
2023-05-25T00:58:48.302Z,10.20
2023-05-25T00:59:48.331Z,9.40
2023-05-25T01:00:48.294Z,9.90
2023-05-25T01:01:48.347Z,9.90
2023-05-25T01:02:48.417Z,9.10
2023-05-25T01:03:48.292Z,10.00
2023-05-25T01:04:48.241Z,10.00
2023-05-25T01:05:48.251Z,10.40
2023-05-25T01:06:48.244Z,10.00
2023-05-25T01:07:48.207Z,10.30
2023-05-25T01:08:48.196Z,9.50
2023-05-25T01:09:48.180Z,10.20
2023-05-25T01:10:48.180Z,9.20
2023-05-25T01:11:48.161Z,9.30
2023-05-25T01:12:48.151Z,8.90
2023-05-25T01:13:48.139Z,10.10
2023-05-25T01:14:48.144Z,10.00
2023-05-25T01:15:48.131Z,10.10
2023-05-25T01:16:48.148Z,10.30
2023-05-25T01:17:48.131Z,9.10
2023-05-25T01:18:48.099Z,9.20
2023-05-25T01:20:01.669Z,8.90
2023-05-25T01:20:49.076Z,9.40
2023-05-25T01:21:48.057Z,10.00
2023-05-25T01:22:48.040Z,9.30
2023-05-25T01:23:48.029Z,9.60
2023-05-25T01:24:48.019Z,9.90
2023-05-25T01:25:48.008Z,9.90
2023-05-25T01:26:47.992Z,10.20
2023-05-25T01:27:48.041Z,10.60
2023-05-25T01:28:48.035Z,10.50
2023-05-25T01:29:47.998Z,10.10
2023-05-25T01:30:47.947Z,10.10
2023-05-25T01:31:48.008Z,9.80
2023-05-25T01:32:47.933Z,9.30
2023-05-25T01:33:47.929Z,9.70
2023-05-25T01:34:47.906Z,8.70
2023-05-25T01:35:47.910Z,9.10
2023-05-25T01:36:47.878Z,8.90
2023-05-25T01:37:47.920Z,8.80
2023-05-25T01:38:47.876Z,9.10
2023-05-25T01:39:47.857Z,8.90
2023-05-25T01:40:47.840Z,9.10
2023-05-25T01:41:47.845Z,8.90
2023-05-25T01:42:47.833Z,8.80
2023-05-25T01:43:47.820Z,9.40
2023-05-25T01:44:47.792Z,9.20
2023-05-25T01:45:47.828Z,9.50
2023-05-25T01:46:47.777Z,9.30
2023-05-25T01:47:47.807Z,9.70
2023-05-25T01:48:47.750Z,8.60
2023-05-25T01:49:47.757Z,9.50
2023-05-25T01:50:47.726Z,9.70
2023-05-25T01:51:47.762Z,9.40
2023-05-25T01:52:47.716Z,9.60
2023-05-25T01:53:47.696Z,9.70
2023-05-25T01:54:47.678Z,9.60
2023-05-25T01:55:47.675Z,10.50
2023-05-25T01:56:47.672Z,10.20
2023-05-25T01:57:47.650Z,9.70
2023-05-25T01:58:47.652Z,10.60
2023-05-25T01:59:47.636Z,9.70
2023-05-25T02:00:47.612Z,8.90
2023-05-25T02:01:48.445Z,10.20
2023-05-25T02:02:47.623Z,8.90
2023-05-25T02:03:47.588Z,9.60
2023-05-25T02:04:47.711Z,9.60
2023-05-25T02:05:47.604Z,9.20
2023-05-25T02:06:47.558Z,9.20
2023-05-25T02:07:47.567Z,9.10
2023-05-25T02:08:47.526Z,9.00
2023-05-25T02:09:47.521Z,10.10
2023-05-25T02:10:47.517Z,9.70
2023-05-25T02:11:47.507Z,9.00
2023-05-25T02:12:47.503Z,9.20
2023-05-25T02:13:47.487Z,9.70
2023-05-25T02:14:47.476Z,8.70
2023-05-25T02:15:47.624Z,8.70
2023-05-25T02:16:47.445Z,9.50
2023-05-25T02:17:47.468Z,9.20
2023-05-25T02:18:47.420Z,9.90
2023-05-25T02:19:47.453Z,10.20
2023-05-25T02:20:47.425Z,10.20
2023-05-25T02:21:47.389Z,10.40
2023-05-25T02:22:47.380Z,10.20
2023-05-25T02:23:47.368Z,10.80
2023-05-25T02:24:47.360Z,10.60
2023-05-25T02:25:47.350Z,11.30
2023-05-25T02:26:47.351Z,11.20
2023-05-25T02:27:47.327Z,11.00
2023-05-25T02:28:47.310Z,10.90
2023-05-25T02:29:47.316Z,11.90
2023-05-25T02:30:47.385Z,11.30
2023-05-25T02:31:47.352Z,11.40
2023-05-25T02:32:47.327Z,11.60
2023-05-25T02:33:47.279Z,11.80
2023-05-25T02:34:47.269Z,11.30
2023-05-25T02:35:47.243Z,11.10
2023-05-25T02:36:47.248Z,11.60
2023-05-25T02:37:48.448Z,12.10
2023-05-25T02:38:47.233Z,11.80
2023-05-25T02:39:47.201Z,11.60
2023-05-25T02:40:47.180Z,10.50
2023-05-25T02:41:47.182Z,10.90
2023-05-25T02:42:47.161Z,10.80
2023-05-25T02:43:47.168Z,10.50
2023-05-25T02:44:47.142Z,10.20
2023-05-25T02:45:47.136Z,10.50
2023-05-25T02:46:47.130Z,9.80
2023-05-25T02:47:47.190Z,10.60
2023-05-25T02:48:47.113Z,10.20
2023-05-25T02:49:47.199Z,9.70
2023-05-25T02:50:47.096Z,9.20
2023-05-25T02:51:47.074Z,10.50
2023-05-25T02:52:47.060Z,9.50
2023-05-25T02:53:47.061Z,10.00
2023-05-25T02:54:47.024Z,10.90
2023-05-25T02:55:47.038Z,10.40
2023-05-25T02:56:47.015Z,10.00
2023-05-25T02:57:47.009Z,9.90
2023-05-25T02:58:46.996Z,9.60
2023-05-25T02:59:46.987Z,9.90
2023-05-25T03:00:47.071Z,10.10
2023-05-25T03:01:46.956Z,9.90
2023-05-25T03:02:47.016Z,10.10
2023-05-25T03:03:46.983Z,10.10
2023-05-25T03:04:46.919Z,10.30
2023-05-25T03:05:46.918Z,10.20
2023-05-25T03:06:46.910Z,9.70
2023-05-25T03:07:46.950Z,9.70
2023-05-25T03:08:46.878Z,10.10
2023-05-25T03:09:46.874Z,10.10
2023-05-25T03:10:46.861Z,10.90
2023-05-25T03:11:46.864Z,10.80
2023-05-25T03:12:46.830Z,11.10
2023-05-25T03:13:46.834Z,9.80
2023-05-25T03:14:46.801Z,9.90
2023-05-25T03:15:46.808Z,10.00
2023-05-25T03:16:46.877Z,9.60
2023-05-25T03:17:46.844Z,10.10
2023-05-25T03:18:46.776Z,10.00
2023-05-25T03:19:46.769Z,9.90
2023-05-25T03:20:46.770Z,10.20
2023-05-25T03:21:46.756Z,9.70
2023-05-25T03:22:46.734Z,9.60
2023-05-25T03:23:46.716Z,9.50
2023-05-25T03:24:46.701Z,10.50
2023-05-25T03:25:46.841Z,10.10
2023-05-25T03:26:46.759Z,9.30
2023-05-25T03:27:46.662Z,10.60
2023-05-25T03:28:46.672Z,10.70
2023-05-25T03:29:46.746Z,10.90
2023-05-25T03:30:46.664Z,10.90
2023-05-25T03:31:46.774Z,10.70
2023-05-25T03:32:46.651Z,11.30
2023-05-25T03:33:46.687Z,10.20
2023-05-25T03:34:46.616Z,10.70
2023-05-25T03:35:46.760Z,11.30
2023-05-25T03:36:46.573Z,10.80
2023-05-25T03:37:46.592Z,10.30
2023-05-25T03:38:46.552Z,10.30
2023-05-25T03:39:46.584Z,10.10
2023-05-25T03:40:46.539Z,10.30
2023-05-25T03:41:46.538Z,10.10
2023-05-25T03:42:46.508Z,9.60
2023-05-25T03:43:46.510Z,10.50
2023-05-25T03:44:46.512Z,9.60
2023-05-25T03:45:46.585Z,9.80
2023-05-25T03:46:46.564Z,9.80
2023-05-25T03:47:46.490Z,10.10
2023-05-25T03:48:46.488Z,9.40
2023-05-25T03:49:46.438Z,9.50
2023-05-25T03:50:46.424Z,9.30
2023-05-25T03:51:46.430Z,9.70
2023-05-25T03:52:46.411Z,10.00
2023-05-25T03:53:46.426Z,10.20
2023-05-25T03:54:46.375Z,10.20
2023-05-25T03:55:46.523Z,10.60
2023-05-25T03:56:46.407Z,11.20
2023-05-25T03:57:46.418Z,11.30
2023-05-25T03:58:46.372Z,12.40
2023-05-25T03:59:46.328Z,11.40
2023-05-25T04:00:46.310Z,11.70
2023-05-25T04:01:46.308Z,11.80
2023-05-25T04:02:46.383Z,12.50
2023-05-25T04:03:46.448Z,11.60
2023-05-25T04:04:46.359Z,12.50
2023-05-25T04:05:46.492Z,12.90
2023-05-25T04:06:46.242Z,12.80
2023-05-25T04:07:46.267Z,12.50
2023-05-25T04:08:46.226Z,13.30
2023-05-25T04:09:46.235Z,11.50
2023-05-25T04:10:46.231Z,12.80
2023-05-25T04:11:46.208Z,13.60
2023-05-25T04:12:46.201Z,13.30
2023-05-25T04:13:46.182Z,12.70
2023-05-25T04:14:46.168Z,12.90
2023-05-25T04:15:46.397Z,11.50
2023-05-25T04:16:46.350Z,11.50
2023-05-25T04:17:46.160Z,12.20
2023-05-25T04:18:46.112Z,12.00
2023-05-25T04:19:46.110Z,12.70
2023-05-25T04:20:46.096Z,12.30
2023-05-25T04:21:46.110Z,12.40
2023-05-25T04:22:46.098Z,11.60
2023-05-25T04:23:46.091Z,12.10
2023-05-25T04:24:46.073Z,12.00
2023-05-25T04:25:46.266Z,12.50
2023-05-25T04:26:46.052Z,14.00
2023-05-25T04:27:46.023Z,12.90
2023-05-25T04:28:45.999Z,13.10
2023-05-25T04:29:46.022Z,12.80
2023-05-25T04:30:45.992Z,13.30
2023-05-25T04:31:46.105Z,13.10
2023-05-25T04:32:46.019Z,13.20
2023-05-25T04:33:46.002Z,13.00
2023-05-25T04:34:45.971Z,12.70
2023-05-25T04:35:46.216Z,12.70
2023-05-25T04:36:45.917Z,13.10
2023-05-25T04:37:45.909Z,12.30
2023-05-25T04:38:45.910Z,12.10
2023-05-25T04:39:45.986Z,12.10
2023-05-25T04:40:45.906Z,11.60
2023-05-25T04:41:45.936Z,11.90
2023-05-25T04:42:45.867Z,11.10
2023-05-25T04:43:56.831Z,10.70
2023-05-25T04:44:46.865Z,10.90
2023-05-25T04:45:46.318Z,11.10
2023-05-25T04:46:45.818Z,9.90
2023-05-25T04:47:45.916Z,10.10
2023-05-25T04:48:45.780Z,10.80
2023-05-25T04:49:45.793Z,9.80
2023-05-25T04:50:45.768Z,11.10
2023-05-25T04:51:45.755Z,10.80
2023-05-25T04:52:45.785Z,11.20
2023-05-25T04:53:46.040Z,11.10
2023-05-25T04:54:45.719Z,11.10
2023-05-25T04:55:45.936Z,11.30
2023-05-25T04:56:45.707Z,11.90
2023-05-25T04:57:45.695Z,11.50
2023-05-25T04:58:45.691Z,10.30
2023-05-25T04:59:45.676Z,11.10
2023-05-25T05:00:45.958Z,11.30
2023-05-25T05:01:45.708Z,11.90
2023-05-25T05:02:45.705Z,11.60
2023-05-25T05:03:45.668Z,10.30
2023-05-25T05:04:45.609Z,10.50
2023-05-25T05:05:45.821Z,10.30
2023-05-25T05:06:45.589Z,9.60
2023-05-25T05:07:45.599Z,10.20
2023-05-25T05:08:45.593Z,9.90
2023-05-25T05:09:45.562Z,10.10
2023-05-25T05:10:45.784Z,10.10
2023-05-25T05:11:45.545Z,9.60
2023-05-25T05:12:45.559Z,10.40
2023-05-25T05:13:45.544Z,10.10
2023-05-25T05:14:45.517Z,10.00
2023-05-25T05:15:45.704Z,10.20
2023-05-25T05:16:45.494Z,10.40
2023-05-25T05:17:45.539Z,10.70
2023-05-25T05:18:45.454Z,10.50
2023-05-25T05:19:45.469Z,10.50
2023-05-25T05:20:45.528Z,10.10
2023-05-25T05:21:45.449Z,10.60
2023-05-25T05:22:45.421Z,11.60
2023-05-25T05:23:45.419Z,12.40
2023-05-25T05:24:45.385Z,11.90
2023-05-25T05:25:45.623Z,12.30
2023-05-25T05:26:57.439Z,11.90
2023-05-25T05:27:46.365Z,11.40
2023-05-25T05:28:45.345Z,11.50
2023-05-25T05:29:45.343Z,12.20
2023-05-25T05:30:45.326Z,12.70
2023-05-25T05:31:45.387Z,12.20
2023-05-25T05:32:46.704Z,12.30
2023-05-25T05:33:45.355Z,13.30
2023-05-25T05:34:45.283Z,12.70
2023-05-25T05:35:45.440Z,13.10
2023-05-25T05:36:55.822Z,12.60
2023-05-25T05:37:46.263Z,13.40
2023-05-25T05:38:45.247Z,13.30
2023-05-25T05:39:45.236Z,13.20
2023-05-25T05:40:45.230Z,13.30
2023-05-25T05:41:45.204Z,13.30
2023-05-25T05:42:45.192Z,12.70
2023-05-25T05:43:45.183Z,13.30
2023-05-25T05:44:45.184Z,12.70
2023-05-25T05:45:45.513Z,13.40
2023-05-25T05:46:45.221Z,12.60
2023-05-25T05:47:45.197Z,13.60
2023-05-25T05:48:45.151Z,13.50
2023-05-25T05:49:45.148Z,13.80
2023-05-25T05:50:45.139Z,14.70
2023-05-25T05:51:45.102Z,13.80
2023-05-25T05:52:45.083Z,14.90
2023-05-25T05:53:45.096Z,13.80
2023-05-25T05:54:45.077Z,14.40
2023-05-25T05:55:46.038Z,14.30
2023-05-25T05:56:45.045Z,14.40
2023-05-25T05:57:45.032Z,13.90
2023-05-25T05:58:45.022Z,13.00
2023-05-25T05:59:45.028Z,13.60
2023-05-25T06:00:44.996Z,13.80
2023-05-25T06:01:45.026Z,13.50
2023-05-25T06:02:45.067Z,13.80
2023-05-25T06:03:44.977Z,13.70
2023-05-25T06:04:44.964Z,13.70
2023-05-25T06:05:45.255Z,12.90
2023-05-25T06:06:44.930Z,14.20
2023-05-25T06:07:44.921Z,12.60
2023-05-25T06:08:45.026Z,12.70
2023-05-25T06:09:44.901Z,12.00
2023-05-25T06:10:45.055Z,12.80
2023-05-25T06:11:44.878Z,12.00
2023-05-25T06:12:44.864Z,11.70
2023-05-25T06:13:46.480Z,11.40
2023-05-25T06:14:44.843Z,11.80
2023-05-25T06:15:45.099Z,12.00
2023-05-25T06:16:44.882Z,11.90
2023-05-25T06:17:44.842Z,11.90
2023-05-25T06:18:44.813Z,11.50
2023-05-25T06:19:44.789Z,11.10
2023-05-25T06:20:44.870Z,11.70
2023-05-25T06:21:44.760Z,11.20
2023-05-25T06:22:44.770Z,12.70
2023-05-25T06:23:44.741Z,11.60
2023-05-25T06:24:44.753Z,11.00
2023-05-25T06:25:44.966Z,11.40
2023-05-25T06:26:44.709Z,11.20
2023-05-25T06:27:44.708Z,10.20
2023-05-25T06:28:44.704Z,11.00
2023-05-25T06:29:44.665Z,11.10
2023-05-25T06:30:44.659Z,10.30
2023-05-25T06:31:44.770Z,10.50
2023-05-25T06:32:44.714Z,10.20
2023-05-25T06:33:44.626Z,10.30
2023-05-25T06:34:44.641Z,10.00
2023-05-25T06:35:44.801Z,10.10
2023-05-25T06:36:44.602Z,9.60
2023-05-25T06:37:44.609Z,9.70
2023-05-25T06:38:44.583Z,9.40
2023-05-25T06:39:44.559Z,10.10
2023-05-25T06:40:44.590Z,9.20
2023-05-25T06:41:44.573Z,9.70
2023-05-25T06:42:44.525Z,9.60
2023-05-25T06:43:44.552Z,9.70
2023-05-25T06:44:44.518Z,9.40
2023-05-25T06:45:44.752Z,9.40
2023-05-25T06:46:44.534Z,9.60
2023-05-25T06:47:44.510Z,9.40
2023-05-25T06:48:44.475Z,9.60
2023-05-25T06:49:44.470Z,9.40
2023-05-25T06:50:44.463Z,9.40
2023-05-25T06:51:44.428Z,8.80
2023-05-25T06:52:44.438Z,9.00
2023-05-25T06:53:44.532Z,9.40
2023-05-25T06:54:44.408Z,8.80
2023-05-25T06:55:44.577Z,9.20
2023-05-25T06:56:44.386Z,8.70
2023-05-25T06:57:44.383Z,9.10
2023-05-25T06:58:44.352Z,9.30
2023-05-25T06:59:44.368Z,9.00
2023-05-25T07:00:46.028Z,9.00
2023-05-25T07:01:44.347Z,8.10
2023-05-25T07:02:44.368Z,8.00
2023-05-25T07:03:44.485Z,8.80
2023-05-25T07:04:44.388Z,8.20
2023-05-25T07:05:44.505Z,8.00
2023-05-25T07:06:44.267Z,8.40
2023-05-25T07:07:44.261Z,8.60
2023-05-25T07:08:44.282Z,9.00
2023-05-25T07:09:44.240Z,9.00
2023-05-25T07:10:44.229Z,8.30
2023-05-25T07:11:44.207Z,8.50
2023-05-25T07:12:44.226Z,8.50
2023-05-25T07:13:44.216Z,8.00
2023-05-25T07:14:44.182Z,8.70
2023-05-25T07:15:44.390Z,9.00
2023-05-25T07:16:44.255Z,8.40
2023-05-25T07:17:44.208Z,8.40
2023-05-25T07:18:44.147Z,8.50
2023-05-25T07:19:44.153Z,8.10
2023-05-25T07:20:44.422Z,8.70
2023-05-25T07:21:44.116Z,8.50
2023-05-25T07:22:44.149Z,8.40
2023-05-25T07:23:44.102Z,9.10
2023-05-25T07:24:44.080Z,9.80
2023-05-25T07:25:44.226Z,8.60
2023-05-25T07:26:44.051Z,8.80
2023-05-25T07:27:44.043Z,8.50
2023-05-25T07:28:44.031Z,9.00
2023-05-25T07:29:44.016Z,8.70
2023-05-25T07:30:44.006Z,8.60
2023-05-25T07:31:44.319Z,8.90
2023-05-25T07:32:44.423Z,8.30
2023-05-25T07:33:44.019Z,8.00
2023-05-25T07:34:44.035Z,8.20
2023-05-25T07:35:44.196Z,8.50
2023-05-25T07:36:43.957Z,8.70
2023-05-25T07:37:43.938Z,9.10
2023-05-25T07:38:43.923Z,8.60
2023-05-25T07:39:43.904Z,9.30
2023-05-25T07:40:43.901Z,8.60
2023-05-25T07:41:43.912Z,8.40
2023-05-25T07:42:43.879Z,8.90
2023-05-25T07:43:43.874Z,8.60
2023-05-25T07:44:43.860Z,8.60
2023-05-25T07:45:44.084Z,8.50
2023-05-25T07:46:43.879Z,8.30
2023-05-25T07:47:43.866Z,9.00
2023-05-25T07:48:43.813Z,8.20
2023-05-25T07:49:43.824Z,8.40
2023-05-25T07:50:43.820Z,8.90
2023-05-25T07:51:43.786Z,9.30
2023-05-25T07:52:43.835Z,8.50
2023-05-25T07:53:43.778Z,8.40
2023-05-25T07:54:43.756Z,9.10
2023-05-25T07:55:44.081Z,8.60
2023-05-25T07:56:43.740Z,9.10
2023-05-25T07:57:43.723Z,9.20
2023-05-25T07:58:43.717Z,8.70
2023-05-25T07:59:43.747Z,9.10
2023-05-25T08:00:43.710Z,8.40
2023-05-25T08:01:43.743Z,8.40
2023-05-25T08:02:43.817Z,8.30
2023-05-25T08:03:49.752Z,9.00
2023-05-25T08:04:44.781Z,8.90
2023-05-25T08:05:43.920Z,9.40
2023-05-25T08:06:43.624Z,9.40
2023-05-25T08:07:43.618Z,9.10
2023-05-25T08:08:43.640Z,9.40
2023-05-25T08:09:43.622Z,8.70
2023-05-25T08:10:43.582Z,9.10
2023-05-25T08:11:43.580Z,9.60
2023-05-25T08:12:49.513Z,9.80
2023-05-25T08:13:44.700Z,9.40
2023-05-25T08:14:43.598Z,9.40
2023-05-25T08:15:43.739Z,9.40
2023-05-25T08:16:43.552Z,9.60
2023-05-25T08:17:43.549Z,9.80
2023-05-25T08:18:43.502Z,9.10
2023-05-25T08:19:43.492Z,9.90
2023-05-25T08:20:43.623Z,9.40
2023-05-25T08:21:43.458Z,8.80
2023-05-25T08:22:43.461Z,9.40
2023-05-25T08:23:43.450Z,8.70
2023-05-25T08:24:43.449Z,9.20
2023-05-25T08:25:43.779Z,9.90
2023-05-25T08:26:54.422Z,9.10
2023-05-25T08:27:44.415Z,9.20
2023-05-25T08:28:43.379Z,9.40
2023-05-25T08:29:43.428Z,9.00
2023-05-25T08:30:43.405Z,8.50
2023-05-25T08:31:43.376Z,8.90
2023-05-25T08:32:43.422Z,8.90
2023-05-25T08:33:43.413Z,9.00
2023-05-25T08:34:43.330Z,8.80
2023-05-25T08:35:43.553Z,8.80
2023-05-25T08:36:43.296Z,8.40
2023-05-25T08:37:43.324Z,8.30
2023-05-25T08:38:43.346Z,8.40
2023-05-25T08:39:43.305Z,8.20
2023-05-25T08:40:43.287Z,8.60
2023-05-25T08:41:43.315Z,8.60
2023-05-25T08:42:43.230Z,8.60
2023-05-25T08:43:43.227Z,8.40
2023-05-25T08:44:43.218Z,8.70
2023-05-25T08:45:46.838Z,8.60
2023-05-25T08:46:43.196Z,8.60
2023-05-25T08:47:43.210Z,9.10
2023-05-25T08:48:43.313Z,8.20
2023-05-25T08:49:43.302Z,8.60
2023-05-25T08:50:43.253Z,8.20
2023-05-25T08:51:43.148Z,8.20
2023-05-25T08:52:43.119Z,8.70
2023-05-25T08:53:43.114Z,8.40
2023-05-25T08:54:43.099Z,8.40
2023-05-25T08:55:43.426Z,8.00
2023-05-25T08:56:43.124Z,7.80
2023-05-25T08:57:43.073Z,7.80
2023-05-25T08:58:43.067Z,8.30
2023-05-25T08:59:43.091Z,7.30
2023-05-25T09:00:43.326Z,7.90
2023-05-25T09:01:43.101Z,8.10
2023-05-25T09:02:43.095Z,8.30
2023-05-25T09:03:43.144Z,7.60
2023-05-25T09:04:43.012Z,7.50
2023-05-25T09:05:43.240Z,7.50
2023-05-25T09:06:44.048Z,7.20
2023-05-25T09:07:42.974Z,7.70
2023-05-25T09:08:42.945Z,7.40
2023-05-25T09:09:42.976Z,7.40
2023-05-25T09:10:42.948Z,7.70
2023-05-25T09:11:44.966Z,7.30
2023-05-25T09:12:42.908Z,7.60
2023-05-25T09:13:42.922Z,7.90
2023-05-25T09:14:42.909Z,7.30
2023-05-25T09:15:43.095Z,7.60
2023-05-25T09:16:42.928Z,8.40
2023-05-25T09:17:42.966Z,7.70
2023-05-25T09:18:42.865Z,7.50
2023-05-25T09:19:42.845Z,7.50
2023-05-25T09:20:45.214Z,7.30
2023-05-25T09:21:42.823Z,7.30
2023-05-25T09:22:42.820Z,6.90
2023-05-25T09:23:42.821Z,6.90
2023-05-25T09:24:42.789Z,6.50
2023-05-25T09:25:42.868Z,7.10
2023-05-25T09:26:42.786Z,7.00
2023-05-25T09:27:42.774Z,6.50
2023-05-25T09:28:42.765Z,6.60
2023-05-25T09:29:42.750Z,6.80
2023-05-25T09:30:42.850Z,6.80
2023-05-25T09:31:42.829Z,6.70
2023-05-25T09:32:42.778Z,7.20
2023-05-25T09:33:42.721Z,6.70
2023-05-25T09:34:42.706Z,6.50
2023-05-25T09:35:42.687Z,6.70
2023-05-25T09:36:42.736Z,6.50
2023-05-25T09:37:42.829Z,6.20
2023-05-25T09:38:43.036Z,6.80
2023-05-25T09:39:42.726Z,6.60
2023-05-25T09:40:42.891Z,6.00
2023-05-25T09:41:42.628Z,6.00
2023-05-25T09:42:42.620Z,6.30
2023-05-25T09:43:48.927Z,6.40
2023-05-25T09:44:43.588Z,6.40
2023-05-25T09:45:42.609Z,6.40
2023-05-25T09:46:42.704Z,6.50
2023-05-25T09:47:42.661Z,7.00
2023-05-25T09:48:42.565Z,6.50
2023-05-25T09:49:42.547Z,6.50
2023-05-25T09:50:42.662Z,6.30
2023-05-25T09:51:42.526Z,7.20
2023-05-25T09:52:42.532Z,6.30
2023-05-25T09:53:42.496Z,6.80
2023-05-25T09:54:42.486Z,6.60
2023-05-25T09:55:53.293Z,6.70
2023-05-25T09:56:43.474Z,6.80
2023-05-25T09:57:42.444Z,7.20
2023-05-25T09:58:42.446Z,7.00
2023-05-25T09:59:42.436Z,6.40
2023-05-25T10:00:42.531Z,7.20
2023-05-25T10:01:44.013Z,6.80
2023-05-25T10:02:42.440Z,6.50
2023-05-25T10:03:43.792Z,6.60
2023-05-25T10:04:43.435Z,6.40
2023-05-25T10:05:42.403Z,7.10
2023-05-25T10:06:42.351Z,6.30
2023-05-25T10:07:42.350Z,6.00
2023-05-25T10:08:42.382Z,6.20
2023-05-25T10:09:42.404Z,6.20
2023-05-25T10:10:42.566Z,6.30
2023-05-25T10:11:42.291Z,6.10
2023-05-25T10:12:42.293Z,5.80
2023-05-25T10:13:42.283Z,5.90
2023-05-25T10:14:42.295Z,5.80
2023-05-25T10:15:42.320Z,5.80
2023-05-25T10:16:42.261Z,5.70
2023-05-25T10:17:42.335Z,5.60
2023-05-25T10:18:42.231Z,5.60
2023-05-25T10:19:42.226Z,6.00
2023-05-25T10:20:42.259Z,6.20
2023-05-25T10:21:42.191Z,6.00
2023-05-25T10:22:42.192Z,5.40
2023-05-25T10:23:42.287Z,5.60
2023-05-25T10:24:42.178Z,5.80
2023-05-25T10:25:42.158Z,5.20
2023-05-25T10:26:42.152Z,5.40
2023-05-25T10:27:42.135Z,5.90
2023-05-25T10:28:42.149Z,5.40
2023-05-25T10:29:42.121Z,5.60
2023-05-25T10:30:42.114Z,5.10
2023-05-25T10:31:42.163Z,5.40
2023-05-25T10:32:42.124Z,4.80
2023-05-25T10:33:42.076Z,5.00
2023-05-25T10:34:42.067Z,4.40
2023-05-25T10:35:56.273Z,4.60
2023-05-25T10:36:43.037Z,4.80
2023-05-25T10:37:42.021Z,4.50
2023-05-25T10:38:42.100Z,4.50
2023-05-25T10:39:42.002Z,4.60
2023-05-25T10:40:42.059Z,4.30
2023-05-25T10:41:41.989Z,4.30
2023-05-25T10:42:41.982Z,4.10
2023-05-25T10:43:41.989Z,4.30
2023-05-25T10:44:41.974Z,4.60
2023-05-25T10:45:41.953Z,4.00
2023-05-25T10:46:41.983Z,4.20
2023-05-25T10:47:41.997Z,4.20
2023-05-25T10:48:41.927Z,4.30
2023-05-25T10:49:41.908Z,4.40
2023-05-25T10:50:41.906Z,4.20
2023-05-25T10:51:41.891Z,4.30
2023-05-25T10:52:41.907Z,3.90
2023-05-25T10:53:41.868Z,4.20
2023-05-25T10:54:41.852Z,3.80
2023-05-25T10:55:41.894Z,4.20
2023-05-25T10:56:42.260Z,4.90
2023-05-25T10:57:41.814Z,4.30
2023-05-25T10:58:41.822Z,4.40
2023-05-25T10:59:41.830Z,4.20
2023-05-25T11:00:41.939Z,4.50
2023-05-25T11:01:41.881Z,4.70
2023-05-25T11:02:41.805Z,4.20
2023-05-25T11:03:41.808Z,5.00
2023-05-25T11:04:41.883Z,4.60
2023-05-25T11:05:41.746Z,4.50
2023-05-25T11:06:41.761Z,5.50
2023-05-25T11:07:41.735Z,4.70
2023-05-25T11:08:41.755Z,5.10
2023-05-25T11:09:41.696Z,4.80
2023-05-25T11:10:41.781Z,5.40
2023-05-25T11:11:41.681Z,5.20
2023-05-25T11:12:41.674Z,4.60
2023-05-25T11:13:41.695Z,4.40
2023-05-25T11:14:41.652Z,4.70
2023-05-25T11:15:41.672Z,4.80
2023-05-25T11:16:41.700Z,4.60
2023-05-25T11:17:41.647Z,4.60
2023-05-25T11:18:41.629Z,4.20
2023-05-25T11:19:41.635Z,4.20
2023-05-25T11:20:41.777Z,4.40
2023-05-25T11:21:41.581Z,4.70
2023-05-25T11:22:41.569Z,4.80
2023-05-25T11:23:41.565Z,4.60
2023-05-25T11:24:41.554Z,4.30
2023-05-25T11:25:41.599Z,4.20
2023-05-25T11:26:41.552Z,4.60
2023-05-25T11:27:41.514Z,5.40
2023-05-25T11:28:41.518Z,4.50
2023-05-25T11:29:41.512Z,4.80
2023-05-25T11:30:41.521Z,4.80
2023-05-25T11:31:43.727Z,4.00
2023-05-25T11:32:41.499Z,4.40
2023-05-25T11:33:41.452Z,4.00
2023-05-25T11:34:41.581Z,4.30
2023-05-25T11:35:41.482Z,4.20
2023-05-25T11:36:41.452Z,4.20
2023-05-25T11:37:41.473Z,4.90
2023-05-25T11:38:45.247Z,4.40
2023-05-25T11:39:42.397Z,3.90
2023-05-25T11:40:41.418Z,4.40
2023-05-25T11:41:41.381Z,4.60
2023-05-25T11:42:41.373Z,4.50
2023-05-25T11:43:41.414Z,5.30
2023-05-25T11:44:41.417Z,4.70
2023-05-25T11:45:41.328Z,5.00
2023-05-25T11:46:41.396Z,4.80
2023-05-25T11:47:41.360Z,5.30
2023-05-25T11:48:41.308Z,5.20
2023-05-25T11:49:41.293Z,4.80
2023-05-25T11:50:41.281Z,5.10
2023-05-25T11:51:41.266Z,4.70
2023-05-25T11:52:41.269Z,5.50
2023-05-25T11:53:41.270Z,4.80
2023-05-25T11:54:41.297Z,5.60
2023-05-25T11:55:41.268Z,4.90
2023-05-25T11:56:41.250Z,5.70
2023-05-25T11:57:41.234Z,5.40
2023-05-25T11:58:41.225Z,4.90
2023-05-25T11:59:41.182Z,4.50
2023-05-25T12:00:41.220Z,5.20
2023-05-25T12:01:41.168Z,4.70
2023-05-25T12:02:41.356Z,5.10
2023-05-25T12:03:41.215Z,4.90
2023-05-25T12:04:41.295Z,4.60
2023-05-25T12:05:41.351Z,4.80
2023-05-25T12:06:41.213Z,5.20
2023-05-25T12:07:41.130Z,5.10
2023-05-25T12:08:41.138Z,5.30
2023-05-25T12:09:41.085Z,4.90
2023-05-25T12:10:41.070Z,5.10
2023-05-25T12:11:41.074Z,5.00
2023-05-25T12:12:41.051Z,4.90
2023-05-25T12:13:41.053Z,5.00
2023-05-25T12:14:41.032Z,5.30
2023-05-25T12:15:41.063Z,5.10
2023-05-25T12:16:41.126Z,5.20
2023-05-25T12:17:41.017Z,5.00
2023-05-25T12:18:40.975Z,5.00
2023-05-25T12:19:40.974Z,4.80
2023-05-25T12:20:41.025Z,5.60
2023-05-25T12:21:41.021Z,5.40
2023-05-25T12:22:40.965Z,5.40
2023-05-25T12:23:40.943Z,5.10
2023-05-25T12:24:40.933Z,5.30
2023-05-25T12:25:50.310Z,4.80
2023-05-25T12:26:41.905Z,4.90
2023-05-25T12:27:40.946Z,5.00
2023-05-25T12:28:40.892Z,5.10
2023-05-25T12:29:40.880Z,5.40
2023-05-25T12:30:40.900Z,5.20
2023-05-25T12:31:40.872Z,5.50
2023-05-25T12:32:40.918Z,4.90
2023-05-25T12:33:40.825Z,5.50
2023-05-25T12:34:40.844Z,5.30
2023-05-25T12:35:40.877Z,5.60
2023-05-25T12:36:40.810Z,5.60
2023-05-25T12:37:40.784Z,5.20
2023-05-25T12:38:40.777Z,5.20
2023-05-25T12:39:40.771Z,5.70
2023-05-25T12:40:40.819Z,5.60
2023-05-25T12:41:40.742Z,5.80
2023-05-25T12:42:40.744Z,5.00
2023-05-25T12:43:40.720Z,4.90
2023-05-25T12:44:40.741Z,4.80
2023-05-25T12:45:40.705Z,4.90
2023-05-25T12:46:40.828Z,5.40
2023-05-25T12:47:40.710Z,5.00
2023-05-25T12:48:40.680Z,5.10
2023-05-25T12:49:40.670Z,4.70
2023-05-25T12:50:41.043Z,4.80
2023-05-25T12:51:40.644Z,4.90
2023-05-25T12:52:40.667Z,4.90
2023-05-25T12:53:40.637Z,4.90
2023-05-25T12:54:40.615Z,4.70
2023-05-25T12:55:40.599Z,4.50
2023-05-25T12:56:40.594Z,4.90
2023-05-25T12:57:40.633Z,5.20
2023-05-25T12:58:40.594Z,5.00
2023-05-25T12:59:40.562Z,5.30
2023-05-25T13:00:40.619Z,5.10
2023-05-25T13:01:40.570Z,4.80
2023-05-25T13:02:40.547Z,5.20
2023-05-25T13:03:40.544Z,4.90
2023-05-25T13:04:40.610Z,5.00
2023-05-25T13:05:40.566Z,6.20
2023-05-25T13:06:40.512Z,5.70
2023-05-25T13:07:40.489Z,5.40
2023-05-25T13:08:40.474Z,5.30
2023-05-25T13:09:40.513Z,4.80